Time;durP1;ratioP1;P1;durP2;ratioP2;P2;SDS_P1;SDS_P2;PMS_P1;PMS_P2;Temp;Humidity;BMP_temperature;BMP_pressure;BME280_temperature;BME280_humidity;BME280_pressure;Samples;Min_cycle;Max_cycle;Signal;HPM_P1;HPM_P2
2023/01/18 00:00:59;;;;;;;2.53;0.33;;;;;;;2.49;95.71;97512.50;5021290;28;20479;-53
2023/01/18 00:03:27;;;;;;;1.00;0.80;;;;;;;2.45;95.70;97512.69;5032860;28;20841;-54
2023/01/18 00:05:53;;;;;;;1.17;0.50;;;;;;;2.40;95.73;97512.03;5032959;28;20887;-54
2023/01/18 00:08:20;;;;;;;1.60;1.60;;;;;;;2.37;96.64;97513.88;5032884;28;20451;-54
2023/01/18 00:10:46;;;;;;;0.40;0.20;;;;;;;2.23;97.25;97528.44;5032742;28;20476;-54
2023/01/18 00:13:13;;;;;;;2.20;2.10;;;;;;;2.02;98.38;97523.13;5032527;28;20454;-54
2023/01/18 00:15:39;;;;;;;0.33;0.23;;;;;;;1.95;99.16;97511.19;5032902;28;20474;-54
2023/01/18 00:18:06;;;;;;;0.40;0.30;;;;;;;1.91;98.59;97512.19;5032628;28;20452;-54
2023/01/18 00:20:32;;;;;;;0.30;0.20;;;;;;;1.85;99.62;97511.59;5032851;28;20582;-53
2023/01/18 00:23:00;;;;;;;0.30;0.20;;;;;;;1.80;99.59;97514.41;5032542;28;20451;-54
2023/01/18 00:25:27;;;;;;;0.50;0.40;;;;;;;1.80;100.00;97510.94;5032511;28;20448;-54
2023/01/18 00:27:55;;;;;;;0.40;0.30;;;;;;;1.78;100.00;97509.22;5032757;28;20470;-53
2023/01/18 00:30:24;;;;;;;2.70;2.50;;;;;;;1.74;99.41;97505.00;5032625;28;20454;-54
2023/01/18 00:32:57;;;;;;;0.40;0.23;;;;;;;1.71;99.27;97514.75;5032482;28;20455;-54
2023/01/18 00:35:25;;;;;;;0.20;0.13;;;;;;;1.68;99.19;97513.09;5032476;28;20444;-54
2023/01/18 00:37:52;;;;;;;0.40;0.37;;;;;;;1.62;99.79;97512.47;5032304;28;20547;-54
2023/01/18 00:40:20;;;;;;;0.50;0.43;;;;;;;1.55;100.00;97508.38;5032313;28;20534;-54
2023/01/18 00:45:31;;;;;;;25.83;0.83;;;;;;;1.30;100.00;97509.28;5032368;28;20861;-54
2023/01/18 00:47:58;;;;;;;0.20;0.20;;;;;;;1.27;100.00;97514.63;5032441;28;20932;-54
2023/01/18 00:50:24;;;;;;;0.30;0.30;;;;;;;1.27;100.00;97509.41;5032274;28;20543;-54
2023/01/18 00:52:55;;;;;;;0.33;0.27;;;;;;;1.19;100.00;97516.66;5032586;28;20755;-54
2023/01/18 00:55:22;;;;;;;4.23;2.83;;;;;;;1.17;100.00;97513.25;5032456;28;20447;-53
2023/01/18 00:57:49;;;;;;;1.80;0.40;;;;;;;1.16;100.00;97515.00;5032897;28;20452;-53
2023/01/18 01:00:22;;;;;;;0.30;0.20;;;;;;;1.22;100.00;97511.31;5034552;28;20515;-54
2023/01/18 01:02:50;;;;;;;1.60;1.40;;;;;;;1.09;100.00;97512.66;5036366;28;20459;-53
2023/01/18 01:08:15;;;;;;;0.50;0.50;;;;;;;0.99;100.00;97522.59;5036136;28;20451;-54
2023/01/18 01:10:45;;;;;;;0.20;0.20;;;;;;;1.03;100.00;97525.97;5036371;28;20497;-53
2023/01/18 01:26:57;;;;;;;0.50;0.30;;;;;;;1.06;100.00;97534.53;5024557;28;20947;-53
2023/01/18 01:29:23;;;;;;;0.20;0.10;;;;;;;1.04;100.00;97540.75;5035699;28;20452;-54
2023/01/18 01:31:50;;;;;;;5.20;3.93;;;;;;;1.03;100.00;97539.88;5035615;28;20529;-53
2023/01/18 01:34:16;;;;;;;5.67;1.07;;;;;;;1.10;100.00;97543.16;5035357;28;20953;-54
2023/01/18 01:36:43;;;;;;;0.30;0.23;;;;;;;1.06;100.00;97546.78;5035872;28;20481;-54
2023/01/18 01:39:09;;;;;;;2.37;0.67;;;;;;;1.23;100.00;97548.78;5035825;28;20530;-53
2023/01/18 01:41:37;;;;;;;0.50;0.50;;;;;;;0.95;100.00;97556.75;5018101;28;20510;-53
2023/01/18 01:44:18;;;;;;;0.30;0.20;;;;;;;0.96;100.00;97561.94;5035347;28;20553;-53
2023/01/18 01:46:52;;;;;;;0.30;0.30;;;;;;;1.03;100.00;97570.41;5035277;28;20546;-53
2023/01/18 01:49:27;;;;;;;0.60;0.60;;;;;;;0.96;100.00;97574.13;5035293;28;20825;-53
2023/01/18 01:52:06;;;;;;;0.40;0.30;;;;;;;1.03;100.00;97580.88;5035368;28;20470;-53
2023/01/18 01:54:44;;;;;;;0.83;0.83;;;;;;;0.91;100.00;97578.69;5035349;28;20440;-53
2023/01/18 01:57:17;;;;;;;0.50;0.50;;;;;;;0.86;100.00;97587.53;5035089;28;20526;-53
2023/01/18 01:59:58;;;;;;;7.60;1.10;;;;;;;0.83;100.00;97585.03;5035581;28;20447;-53
2023/01/18 02:02:26;;;;;;;0.30;0.20;;;;;;;0.88;100.00;97584.88;5023242;28;20483;-53
2023/01/18 02:04:54;;;;;;;0.27;0.20;;;;;;;0.86;100.00;97582.31;5034982;28;20578;-53
2023/01/18 02:07:21;;;;;;;0.40;0.40;;;;;;;0.73;100.00;97583.63;5035167;28;20455;-53
2023/01/18 02:09:50;;;;;;;0.60;0.60;;;;;;;0.77;100.00;97595.69;5035052;28;20452;-53
2023/01/18 02:12:17;;;;;;;0.20;0.10;;;;;;;0.78;100.00;97596.53;5035007;28;20472;-53
2023/01/18 02:14:44;;;;;;;1.07;1.07;;;;;;;0.71;100.00;97597.66;5034928;28;20451;-53
2023/01/18 02:17:19;;;;;;;0.47;0.47;;;;;;;0.82;100.00;97598.13;5034781;28;20995;-53
2023/01/18 02:19:51;;;;;;;0.30;0.23;;;;;;;0.77;100.00;97603.53;5034763;28;20451;-53
2023/01/18 02:22:36;;;;;;;0.20;0.10;;;;;;;0.74;100.00;97602.78;5035064;28;20468;-53
2023/01/18 02:25:19;;;;;;;0.30;0.30;;;;;;;0.72;100.00;97608.06;5034602;28;21022;-53
2023/01/18 02:28:05;;;;;;;0.90;0.40;;;;;;;0.64;100.00;97610.06;5034742;28;20456;-53
2023/01/18 02:30:38;;;;;;;1.30;0.30;;;;;;;0.75;100.00;97614.94;5034333;28;20447;-53
2023/01/18 02:33:20;;;;;;;0.30;0.30;;;;;;;0.89;100.00;97608.34;5021650;28;20510;-53
2023/01/18 02:35:53;;;;;;;0.20;0.20;;;;;;;0.74;100.00;97613.22;5034354;28;20444;-53
2023/01/18 02:38:27;;;;;;;0.40;0.30;;;;;;;0.83;100.00;97612.94;5034656;28;20447;-53
2023/01/18 02:41:15;;;;;;;0.50;0.30;;;;;;;0.77;100.00;97623.59;5034132;28;20992;-54
2023/01/18 02:46:29;;;;;;;0.30;0.20;;;;;;;0.71;100.00;97618.56;5023907;28;20455;-53
2023/01/18 02:48:58;;;;;;;2.37;0.83;;;;;;;0.73;100.00;97628.06;5034160;28;20952;-53
2023/01/18 02:51:24;;;;;;;0.70;0.57;;;;;;;0.75;100.00;97634.09;5034151;28;20472;-53
2023/01/18 02:53:51;;;;;;;0.83;0.83;;;;;;;0.86;100.00;97633.75;5034158;28;20502;-53
2023/01/18 02:56:29;;;;;;;0.40;0.40;;;;;;;0.97;100.00;97638.63;5034154;28;20462;-53
2023/01/18 02:59:12;;;;;;;0.20;0.17;;;;;;;1.52;100.00;97640.22;5034252;28;20818;-53
2023/01/18 03:01:51;;;;;;;1.80;1.70;;;;;;;1.60;99.11;97647.78;5033954;28;20487;-54
2023/01/18 03:04:28;;;;;;;0.30;0.27;;;;;;;1.46;99.75;97645.66;5034260;28;20501;-54
2023/01/18 03:07:08;;;;;;;2.50;1.20;;;;;;;1.41;99.90;97647.59;5033998;28;20447;-54
2023/01/18 03:09:34;;;;;;;0.40;0.40;;;;;;;1.36;99.91;97650.34;5033910;28;20501;-53
2023/01/18 03:12:05;;;;;;;1.17;0.47;;;;;;;1.31;100.00;97647.03;5033672;28;20471;-53
2023/01/18 03:15:11;;;;;;;4.17;1.00;;;;;;;1.38;99.88;97659.03;5034078;28;20443;-53
2023/01/18 03:17:42;;;;;;;1.40;1.40;;;;;;;1.35;99.79;97653.88;4986474;28;20456;-53
2023/01/18 03:20:13;;;;;;;0.97;0.50;;;;;;;1.40;99.82;97656.34;5016322;28;20517;-54
2023/01/18 03:25:53;;;;;;;1.27;0.97;;;;;;;1.39;100.00;97663.34;5026007;28;20496;-53
2023/01/18 03:34:17;;;;;;;0.30;0.20;;;;;;;2.10;97.17;97673.91;5033433;28;21006;-53
2023/01/18 03:36:51;;;;;;;0.67;0.30;;;;;;;2.03;96.92;97678.50;5033473;28;20501;-54
2023/01/18 03:39:27;;;;;;;0.33;0.33;;;;;;;2.33;95.75;97671.28;5033205;28;20507;-54
2023/01/18 03:41:59;;;;;;;0.30;0.20;;;;;;;2.18;94.45;97680.56;5033353;28;20463;-53
2023/01/18 03:44:36;;;;;;;0.30;0.20;;;;;;;2.52;93.15;97689.78;5033587;28;20494;-54
2023/01/18 03:47:04;;;;;;;0.30;0.30;;;;;;;2.40;93.78;97690.25;5033213;28;20494;-54
2023/01/18 03:49:33;;;;;;;1.30;0.53;;;;;;;2.41;94.10;97694.59;5033118;28;20448;-53
2023/01/18 03:52:44;;;;;;;1.13;0.30;;;;;;;2.39;93.05;97705.13;5033119;28;20475;-53
2023/01/18 03:55:17;;;;;;;0.50;0.30;;;;;;;2.25;93.33;97702.19;4952758;28;20466;-53
2023/01/18 03:57:54;;;;;;;0.73;0.47;;;;;;;2.19;93.59;97708.47;5020786;28;20797;-53
2023/01/18 04:00:20;;;;;;;0.20;0.20;;;;;;;2.24;94.30;97706.56;5024965;28;20483;-53
2023/01/18 04:02:48;;;;;;;7.73;0.70;;;;;;;2.25;93.33;97716.13;5032779;28;20480;-54
2023/01/18 04:05:16;;;;;;;0.30;0.30;;;;;;;2.27;93.91;97711.69;5032856;28;20495;-53
2023/01/18 04:07:42;;;;;;;11.87;0.63;;;;;;;2.25;93.49;97720.53;5032835;28;20570;-54
2023/01/18 04:10:10;;;;;;;0.47;0.47;;;;;;;2.25;93.20;97720.53;5032778;28;20509;-53
2023/01/18 04:12:36;;;;;;;0.30;0.20;;;;;;;2.17;93.60;97728.63;5032734;28;20828;-53
2023/01/18 04:15:03;;;;;;;0.30;0.30;;;;;;;2.16;93.93;97719.06;5032772;28;20443;-53
2023/01/18 04:17:30;;;;;;;0.67;0.67;;;;;;;2.28;93.42;97725.63;5032861;28;20451;-53
2023/01/18 04:19:56;;;;;;;0.30;0.30;;;;;;;2.44;93.96;97734.63;5032678;28;20453;-54
2023/01/18 04:22:22;;;;;;;0.50;0.50;;;;;;;2.31;93.48;97734.22;5032704;28;20479;-54
2023/01/18 04:24:49;;;;;;;0.30;0.20;;;;;;;2.25;93.27;97738.84;5032375;28;20484;-53
2023/01/18 04:27:15;;;;;;;0.40;0.40;;;;;;;2.22;94.55;97741.59;5032473;28;20456;-53
2023/01/18 04:29:42;;;;;;;1.67;0.40;;;;;;;2.37;93.35;97751.53;5032593;28;20456;-53
2023/01/18 04:32:08;;;;;;;0.70;0.70;;;;;;;2.37;93.74;97748.91;5032612;28;20476;-53
2023/01/18 04:34:35;;;;;;;0.30;0.30;;;;;;;2.29;93.78;97756.19;5032454;28;20436;-53
2023/01/18 04:37:01;;;;;;;2.53;0.30;;;;;;;2.14;94.09;97759.34;5032699;28;20447;-53
2023/01/18 04:39:27;;;;;;;0.30;0.20;;;;;;;2.25;93.92;97759.81;5032328;28;20456;-53
2023/01/18 04:41:54;;;;;;;0.30;0.20;;;;;;;2.10;93.71;97758.59;5032403;28;20475;-53
2023/01/18 04:44:22;;;;;;;0.20;0.17;;;;;;;1.98;93.94;97761.66;5032631;28;20491;-53
2023/01/18 04:46:49;;;;;;;0.20;0.20;;;;;;;1.84;95.23;97764.75;5032232;28;20837;-53
2023/01/18 04:49:16;;;;;;;0.20;0.10;;;;;;;1.95;95.42;97754.78;5032441;28;20479;-53
2023/01/18 04:51:44;;;;;;;0.30;0.20;;;;;;;1.86;94.96;97762.09;5032355;28;20510;-53
2023/01/18 04:54:13;;;;;;;0.60;0.60;;;;;;;1.94;93.59;97767.91;5032188;28;20452;-53
2023/01/18 04:56:40;;;;;;;0.57;0.57;;;;;;;1.96;94.47;97768.72;5032450;28;20448;-53
2023/01/18 04:59:06;;;;;;;0.20;0.20;;;;;;;1.98;93.96;97780.84;5032538;28;20451;-53
2023/01/18 05:01:32;;;;;;;0.20;0.10;;;;;;;2.10;93.07;97771.72;5032269;28;20481;-53
2023/01/18 05:04:00;;;;;;;0.63;0.63;;;;;;;2.04;93.51;97785.84;5032435;28;20448;-53
2023/01/18 05:06:26;;;;;;;0.20;0.20;;;;;;;2.06;93.40;97784.06;5032440;28;20452;-53
2023/01/18 05:08:53;;;;;;;0.30;0.30;;;;;;;2.21;92.48;97784.44;5032257;28;20454;-53
2023/01/18 05:11:22;;;;;;;0.47;0.37;;;;;;;2.28;91.33;97788.53;5014537;28;20862;-53
2023/01/18 05:13:48;;;;;;;0.20;0.10;;;;;;;2.30;92.22;97791.94;5032411;28;20451;-53
2023/01/18 05:16:19;;;;;;;1.30;1.30;;;;;;;2.38;91.35;97796.03;5032262;28;20505;-53
2023/01/18 05:18:46;;;;;;;0.40;0.40;;;;;;;2.47;90.47;97796.56;5032697;28;20452;-53
2023/01/18 05:21:13;;;;;;;0.87;0.87;;;;;;;2.50;91.05;97804.34;5031772;28;20539;-53
2023/01/18 05:23:39;;;;;;;0.40;0.30;;;;;;;2.19;91.39;97815.91;5032009;28;20454;-53
2023/01/18 05:26:13;;;;;;;1.70;1.10;;;;;;;2.20;92.23;97822.03;5032068;28;20569;-52
2023/01/18 05:28:41;;;;;;;0.37;0.30;;;;;;;2.30;91.70;97824.25;5032167;28;20482;-53
2023/01/18 05:31:07;;;;;;;0.30;0.20;;;;;;;2.55;92.83;97828.63;5031697;28;20479;-53
2023/01/18 05:33:34;;;;;;;0.97;0.97;;;;;;;2.44;90.60;97836.88;5032103;28;20493;-54
2023/01/18 05:36:01;;;;;;;0.70;0.40;;;;;;;2.27;90.58;97842.72;5031668;28;20455;-53
2023/01/18 05:38:27;;;;;;;2.00;0.70;;;;;;;2.37;90.38;97838.88;5031994;28;20809;-53
2023/01/18 05:40:54;;;;;;;0.53;0.47;;;;;;;2.16;91.85;97847.47;5031689;28;21046;-53
2023/01/18 05:43:22;;;;;;;4.03;0.33;;;;;;;2.27;91.43;97847.97;5031972;28;20458;-53
2023/01/18 05:45:50;;;;;;;0.30;0.20;;;;;;;2.10;91.93;97854.69;5033296;28;20605;-53
2023/01/18 05:48:18;;;;;;;0.40;0.30;;;;;;;2.10;92.02;97862.56;5035447;28;20796;-53
2023/01/18 05:50:47;;;;;;;0.20;0.20;;;;;;;2.03;91.97;97867.97;5035575;28;20471;-53
2023/01/18 05:53:16;;;;;;;6.77;1.30;;;;;;;1.96;93.41;97869.13;5035780;28;20443;-53
2023/01/18 05:55:43;;;;;;;2.73;1.17;;;;;;;2.03;93.48;97874.97;5035488;28;20455;-53
2023/01/18 05:58:10;;;;;;;0.87;0.77;;;;;;;2.00;93.28;97877.72;5035614;28;20451;-53
2023/01/18 06:00:39;;;;;;;2.00;1.07;;;;;;;1.90;93.37;97879.78;5035567;28;20459;-53
2023/01/18 06:03:05;;;;;;;0.37;0.33;;;;;;;1.83;93.82;97872.19;5034925;28;20880;-53
2023/01/18 06:05:32;;;;;;;0.30;0.20;;;;;;;1.71;93.85;97873.44;5035207;28;20491;-52
2023/01/18 06:07:58;;;;;;;0.90;0.60;;;;;;;1.67;94.79;97882.31;5035547;28;20447;-52
2023/01/18 06:10:25;;;;;;;0.63;0.43;;;;;;;1.84;94.47;97882.59;5034969;28;20494;-53
2023/01/18 06:12:51;;;;;;;0.70;0.30;;;;;;;1.85;93.16;97886.94;5034931;28;20510;-52
2023/01/18 06:15:18;;;;;;;0.40;0.30;;;;;;;1.61;94.54;97885.09;5035204;28;20458;-52
2023/01/18 06:17:45;;;;;;;0.93;0.93;;;;;;;1.85;93.40;97902.66;5034797;28;21280;-53
2023/01/18 06:20:13;;;;;;;0.70;0.70;;;;;;;1.80;93.19;97896.72;5034938;28;20937;-53
2023/01/18 06:22:39;;;;;;;10.23;0.77;;;;;;;1.66;94.13;97902.38;5034882;28;20471;-53
2023/01/18 06:25:08;;;;;;;2.70;0.47;;;;;;;1.57;94.49;97910.53;5035026;28;20493;-53
2023/01/18 06:27:36;;;;;;;1.60;1.60;;;;;;;1.60;92.88;97907.81;5034932;28;20485;-52
2023/01/18 06:30:05;;;;;;;0.40;0.40;;;;;;;1.70;92.93;97905.75;5036406;28;20458;-52
2023/01/18 06:32:31;;;;;;;0.30;0.20;;;;;;;1.64;92.53;97919.03;5035132;28;20467;-52
2023/01/18 06:34:58;;;;;;;0.20;0.20;;;;;;;1.63;92.88;97931.25;5034944;28;20514;-53
2023/01/18 06:37:24;;;;;;;0.60;0.60;;;;;;;1.47;91.37;97930.88;5034851;28;20878;-52
2023/01/18 06:39:51;;;;;;;0.30;0.20;;;;;;;1.44;92.24;97930.97;5034834;28;20829;-51
2023/01/18 06:42:17;;;;;;;0.30;0.20;;;;;;;1.43;92.18;97936.25;5034615;28;20976;-52
2023/01/18 06:44:43;;;;;;;1.13;0.63;;;;;;;1.48;91.90;97936.97;5034493;28;20444;-52
2023/01/18 06:47:10;;;;;;;0.50;0.50;;;;;;;1.60;91.37;97946.22;5034475;28;20458;-52
2023/01/18 06:49:36;;;;;;;0.30;0.20;;;;;;;1.43;92.26;97952.81;5034668;28;20452;-52
2023/01/18 06:52:03;;;;;;;1.50;0.67;;;;;;;1.47;91.36;97956.19;5034749;28;20506;-52
2023/01/18 06:54:29;;;;;;;0.87;0.87;;;;;;;1.54;91.03;97962.13;5034757;28;20452;-52
2023/01/18 06:56:56;;;;;;;0.30;0.20;;;;;;;1.71;91.06;97965.94;5033571;28;20475;-52
2023/01/18 06:59:22;;;;;;;0.27;0.20;;;;;;;1.71;90.63;97967.69;5034537;28;20459;-52
2023/01/18 07:01:49;;;;;;;0.70;0.70;;;;;;;1.86;90.57;97974.22;5034193;28;20479;-55
2023/01/18 07:04:15;;;;;;;0.43;0.43;;;;;;;1.88;90.85;97977.63;5034168;28;20841;-52
2023/01/18 07:06:42;;;;;;;0.73;0.73;;;;;;;1.84;91.28;97978.66;5033823;28;20499;-53
2023/01/18 07:09:09;;;;;;;1.30;1.20;;;;;;;1.87;90.38;97987.25;5034119;28;20510;-52
2023/01/18 07:11:36;;;;;;;0.30;0.30;;;;;;;1.87;90.78;97989.03;5033782;28;20476;-52
2023/01/18 07:14:02;;;;;;;1.43;1.43;;;;;;;1.61;91.30;97995.03;5033815;28;20452;-52
2023/01/18 07:16:29;;;;;;;0.40;0.40;;;;;;;1.60;92.44;97996.81;5033882;28;20451;-52
2023/01/18 07:18:58;;;;;;;0.30;0.20;;;;;;;1.62;92.12;98002.84;5033739;28;20840;-53
2023/01/18 07:21:28;;;;;;;0.30;0.30;;;;;;;1.47;92.44;98006.78;5034977;28;20472;-52
2023/01/18 07:23:58;;;;;;;0.33;0.33;;;;;;;1.53;91.95;98012.75;5033509;28;20474;-52
2023/01/18 07:26:25;;;;;;;1.00;1.00;;;;;;;1.46;92.21;98026.00;5033361;28;20490;-52
2023/01/18 07:28:53;;;;;;;0.63;0.63;;;;;;;1.46;92.68;98023.38;5033784;28;20458;-52
2023/01/18 07:31:20;;;;;;;1.53;1.50;;;;;;;1.44;92.80;98038.28;5033769;28;20545;-52
2023/01/18 07:33:46;;;;;;;0.30;0.20;;;;;;;1.42;93.30;98037.47;5033596;28;20459;-52
2023/01/18 07:36:13;;;;;;;0.30;0.30;;;;;;;1.45;92.76;98042.63;5033348;28;20451;-52
2023/01/18 07:38:40;;;;;;;1.40;1.23;;;;;;;1.54;93.61;98046.75;5033613;28;20458;-53
2023/01/18 07:41:10;;;;;;;0.40;0.27;;;;;;;1.60;93.02;98050.94;5033033;28;20475;-52
2023/01/18 07:43:37;;;;;;;0.47;0.47;;;;;;;1.56;92.62;98062.41;5033727;28;20519;-52
2023/01/18 07:46:05;;;;;;;0.70;0.63;;;;;;;1.51;93.66;98065.16;5033481;28;20517;-52
2023/01/18 07:48:32;;;;;;;0.60;0.43;;;;;;;1.47;93.22;98066.97;5033494;28;20452;-53
2023/01/18 07:51:05;;;;;;;2.30;0.53;;;;;;;1.58;92.67;98066.69;5033835;28;20498;-53
2023/01/18 07:53:33;;;;;;;0.50;0.50;;;;;;;1.46;94.30;98067.03;5033248;28;20451;-52
2023/01/18 07:56:10;;;;;;;0.37;0.37;;;;;;;1.52;93.63;98077.34;5033307;28;20448;-52
2023/01/18 07:58:37;;;;;;;1.17;1.17;;;;;;;1.77;93.29;98080.94;5033133;28;20485;-52
2023/01/18 08:01:15;;;;;;;0.33;0.33;;;;;;;1.78;92.61;98077.47;5015582;28;20467;-53
2023/01/18 08:03:43;;;;;;;1.47;1.47;;;;;;;1.78;93.26;98087.03;5033314;28;20542;-52
2023/01/18 08:06:15;;;;;;;0.80;0.80;;;;;;;1.80;92.10;98092.25;5033072;28;20491;-52
2023/01/18 08:08:42;;;;;;;6.03;3.00;;;;;;;1.63;93.29;98093.59;5033003;28;20447;-52
2023/01/18 08:11:10;;;;;;;0.60;0.60;;;;;;;1.64;94.36;98105.78;5032972;28;20522;-53
2023/01/18 08:13:37;;;;;;;0.50;0.50;;;;;;;1.67;93.78;98108.31;5032908;28;20458;-52
2023/01/18 08:16:06;;;;;;;0.50;0.40;;;;;;;1.63;94.32;98111.91;5032880;28;20448;-52
2023/01/18 08:18:33;;;;;;;0.50;0.50;;;;;;;1.63;93.91;98113.66;5033107;28;20458;-52
2023/01/18 08:20:59;;;;;;;3.10;1.07;;;;;;;1.67;94.45;98116.19;5032901;28;20478;-53
2023/01/18 08:23:26;;;;;;;0.63;0.63;;;;;;;1.73;94.35;98118.59;5032725;28;20447;-52
2023/01/18 08:25:54;;;;;;;1.00;1.00;;;;;;;1.62;93.85;98127.66;5032611;28;20487;-54
2023/01/18 08:28:20;;;;;;;2.03;0.83;;;;;;;1.66;93.90;98124.06;5032856;28;20451;-52
2023/01/18 08:30:47;;;;;;;85.30;2.30;;;;;;;1.79;94.80;98135.94;5032400;28;20472;-52
2023/01/18 08:33:14;;;;;;;0.87;0.83;;;;;;;1.69;93.94;98135.31;5032581;28;20452;-52
2023/01/18 08:35:43;;;;;;;1.70;1.60;;;;;;;1.73;94.54;98141.31;5032563;28;20451;-52
2023/01/18 08:38:11;;;;;;;0.40;0.40;;;;;;;1.83;94.38;98140.16;5032474;28;20908;-52
2023/01/18 08:40:38;;;;;;;0.53;0.53;;;;;;;1.91;94.04;98143.41;5032516;28;20452;-53
2023/01/18 08:43:04;;;;;;;0.60;0.60;;;;;;;1.91;94.37;98147.78;5032494;28;20458;-52
2023/01/18 08:45:33;;;;;;;0.50;0.50;;;;;;;2.11;93.78;98149.84;5032189;28;20503;-52
2023/01/18 08:48:03;;;;;;;1.43;0.70;;;;;;;1.94;92.93;98159.06;5032854;28;20448;-52
2023/01/18 08:50:30;;;;;;;0.40;0.23;;;;;;;1.98;93.50;98160.69;5032455;28;20447;-52
2023/01/18 08:52:58;;;;;;;2.13;1.97;;;;;;;2.04;93.62;98170.97;5032291;28;20959;-52
2023/01/18 08:55:28;;;;;;;0.73;0.63;;;;;;;2.11;93.30;98179.53;5032379;28;20945;-52
2023/01/18 08:57:56;;;;;;;0.70;0.70;;;;;;;2.16;93.38;98187.25;5032474;28;20872;-52
2023/01/18 09:00:29;;;;;;;4.53;0.50;;;;;;;2.23;92.49;98181.81;5032384;28;20455;-52
2023/01/18 09:02:56;;;;;;;4.70;0.87;;;;;;;2.46;91.84;98186.34;5032133;28;20999;-52
2023/01/18 09:05:25;;;;;;;0.63;0.63;;;;;;;2.47;90.79;98195.97;5032118;28;20502;-52
2023/01/18 09:07:53;;;;;;;0.60;0.60;;;;;;;2.44;91.54;98197.78;5032317;28;20945;-52
2023/01/18 09:10:20;;;;;;;0.30;0.20;;;;;;;2.50;91.02;98202.88;5032228;28;20510;-52
2023/01/18 09:12:47;;;;;;;1.03;1.03;;;;;;;2.70;90.90;98207.50;5032003;28;20479;-52
2023/01/18 09:15:13;;;;;;;0.60;0.60;;;;;;;2.54;90.43;98215.81;5032316;28;20568;-52
2023/01/18 09:17:40;;;;;;;2.10;1.70;;;;;;;2.76;89.69;98217.81;5032298;28;20456;-52
2023/01/18 09:20:08;;;;;;;0.80;0.80;;;;;;;2.73;89.66;98223.97;5032485;28;21028;-51
2023/01/18 09:22:36;;;;;;;2.77;1.50;;;;;;;2.91;88.97;98225.19;5035929;28;20894;-52
2023/01/18 09:25:03;;;;;;;0.97;0.97;;;;;;;2.95;89.15;98227.69;5035766;28;20979;-52
2023/01/18 09:27:30;;;;;;;0.93;0.93;;;;;;;3.02;88.44;98236.22;5036171;28;20491;-53
2023/01/18 09:29:57;;;;;;;2.10;1.17;;;;;;;3.06;89.39;98234.34;5036094;28;20459;-52
2023/01/18 09:32:24;;;;;;;0.43;0.43;;;;;;;3.19;88.99;98244.41;5035739;28;20988;-52
2023/01/18 09:34:51;;;;;;;3.23;1.30;;;;;;;3.32;88.98;98241.41;5036099;28;20451;-52
2023/01/18 09:37:18;;;;;;;1.37;1.30;;;;;;;3.53;88.58;98244.16;5035735;28;20447;-52
2023/01/18 09:39:44;;;;;;;1.40;1.10;;;;;;;3.57;87.13;98255.44;5036091;28;20454;-52
2023/01/18 09:42:21;;;;;;;0.30;0.30;;;;;;;3.30;86.61;98266.84;5035941;28;20517;-52
2023/01/18 09:44:51;;;;;;;5.50;2.13;;;;;;;3.30;87.23;98264.22;5035709;28;20538;-52
2023/01/18 09:47:33;;;;;;;0.57;0.57;;;;;;;3.34;86.86;98269.31;5035460;28;20496;-52
2023/01/18 09:50:05;;;;;;;1.33;1.23;;;;;;;3.48;86.88;98268.88;5035525;28;20446;-53
2023/01/18 09:52:31;;;;;;;1.90;1.80;;;;;;;3.41;87.10;98277.84;5035302;28;20472;-53
2023/01/18 09:55:48;;;;;;;1.07;1.07;;;;;;;3.35;86.26;98284.16;5035445;28;21044;-52
2023/01/18 09:58:27;;;;;;;1.67;1.67;;;;;;;3.32;86.19;98284.28;4947916;28;21003;-52
2023/01/18 10:01:01;;;;;;;0.90;0.90;;;;;;;3.48;85.57;98285.47;5027275;28;20895;-52
2023/01/18 10:03:30;;;;;;;0.70;0.70;;;;;;;3.49;86.12;98287.19;5035087;28;20990;-52
2023/01/18 10:06:10;;;;;;;3.07;2.87;;;;;;;3.52;86.12;98292.34;5035286;28;20487;-52
2023/01/18 10:08:52;;;;;;;3.10;1.80;;;;;;;3.37;86.36;98292.84;5035141;28;20493;-52
2023/01/18 10:11:30;;;;;;;1.17;1.17;;;;;;;3.41;86.48;98293.59;5035314;28;20459;-52
2023/01/18 10:14:04;;;;;;;2.70;2.50;;;;;;;3.44;86.62;98296.16;5023272;28;20455;-52
2023/01/18 10:16:33;;;;;;;1.13;1.10;;;;;;;3.56;86.22;98299.25;5035091;28;20864;-52
2023/01/18 10:19:00;;;;;;;4.27;1.40;;;;;;;3.60;86.40;98302.63;5035119;28;20942;-53
2023/01/18 10:21:43;;;;;;;1.23;0.87;;;;;;;3.54;86.97;98301.03;5034754;28;20472;-52
2023/01/18 10:24:25;;;;;;;1.00;1.00;;;;;;;3.54;86.89;98301.03;5035412;28;20454;-53
2023/01/18 10:26:56;;;;;;;0.33;0.30;;;;;;;3.70;85.48;98306.66;5022361;28;21016;-52
2023/01/18 10:29:53;;;;;;;0.50;0.50;;;;;;;3.67;85.49;98309.38;5034914;28;20452;-52
2023/01/18 10:32:22;;;;;;;2.00;0.93;;;;;;;3.78;85.72;98311.66;5034956;28;20471;-52
2023/01/18 10:34:50;;;;;;;0.90;0.90;;;;;;;4.05;84.40;98320.38;5034888;28;20574;-52
2023/01/18 10:37:29;;;;;;;0.40;0.40;;;;;;;3.97;84.25;98322.41;5034617;28;20534;-52
2023/01/18 10:40:02;;;;;;;0.57;0.40;;;;;;;4.02;83.42;98317.88;5034708;28;20443;-53
2023/01/18 10:42:33;;;;;;;2.53;2.37;;;;;;;4.12;83.36;98325.38;5034516;28;20467;-52
2023/01/18 10:45:00;;;;;;;0.83;0.83;;;;;;;4.23;84.16;98332.03;5034687;28;20943;-52
2023/01/18 10:47:26;;;;;;;0.77;0.77;;;;;;;4.01;84.17;98327.53;5034348;28;21025;-52
2023/01/18 10:49:58;;;;;;;2.90;2.37;;;;;;;4.04;84.67;98326.56;5034597;28;20477;-52
2023/01/18 10:52:30;;;;;;;0.73;0.73;;;;;;;4.06;85.58;98335.22;5034229;28;20555;-52
2023/01/18 10:55:00;;;;;;;1.33;1.23;;;;;;;4.32;84.01;98329.94;5034535;28;20455;-53
2023/01/18 10:57:46;;;;;;;0.73;0.63;;;;;;;4.28;82.73;98335.38;5034160;28;20444;-52
2023/01/18 11:00:29;;;;;;;0.63;0.63;;;;;;;4.58;82.68;98341.31;5034403;28;20451;-52
2023/01/18 11:02:58;;;;;;;8.23;1.70;;;;;;;4.21;82.25;98345.22;5034029;28;20462;-52
2023/01/18 11:05:38;;;;;;;4.53;0.77;;;;;;;4.18;82.25;98339.22;5034233;28;20440;-52
2023/01/18 11:08:26;;;;;;;7.43;1.90;;;;;;;4.40;81.81;98345.47;5034093;28;20443;-52
2023/01/18 11:11:00;;;;;;;1.77;1.53;;;;;;;4.57;81.83;98352.75;5033962;28;20467;-52
2023/01/18 11:13:43;;;;;;;1.57;1.30;;;;;;;4.53;81.81;98345.91;5033853;28;20454;-52
2023/01/18 11:16:18;;;;;;;23.33;2.03;;;;;;;4.60;81.80;98353.50;5033784;28;20809;-52
2023/01/18 11:19:01;;;;;;;12.20;2.00;;;;;;;4.50;80.81;98352.09;5016451;28;20472;-52
2023/01/18 11:21:39;;;;;;;1.13;1.03;;;;;;;4.72;79.53;98355.69;5034802;28;20529;-52
2023/01/18 11:24:13;;;;;;;0.40;0.40;;;;;;;4.73;79.23;98351.28;5016940;28;20443;-52
2023/01/18 11:26:57;;;;;;;3.53;1.47;;;;;;;4.76;79.83;98348.53;5022235;28;20498;-52
2023/01/18 11:29:38;;;;;;;2.33;1.30;;;;;;;4.97;79.62;98358.28;5034720;28;20448;-52
2023/01/18 11:32:08;;;;;;;1.30;1.23;;;;;;;5.02;79.05;98358.97;5034442;28;20467;-53
2023/01/18 11:34:38;;;;;;;1.20;1.20;;;;;;;5.04;79.22;98359.75;5034643;28;20470;-52
2023/01/18 11:37:34;;;;;;;2.10;1.87;;;;;;;4.83;79.38;98364.97;5034921;28;20447;-52
2023/01/18 11:40:26;;;;;;;1.20;1.10;;;;;;;5.18;78.17;98368.91;5024713;28;20475;-52
2023/01/18 11:43:00;;;;;;;2.87;1.17;;;;;;;4.92;79.37;98364.63;5016916;28;20462;-53
2023/01/18 11:45:58;;;;;;;0.97;0.93;;;;;;;4.76;78.82;98362.56;5035132;28;20475;-52
2023/01/18 11:48:29;;;;;;;1.50;1.00;;;;;;;4.73;79.37;98367.06;5033840;28;20525;-52
2023/01/18 11:51:18;;;;;;;2.40;1.77;;;;;;;4.59;78.92;98364.06;5034566;28;20988;-52
2023/01/18 11:54:01;;;;;;;0.97;0.70;;;;;;;4.64;79.11;98365.63;5034986;28;20478;-52
2023/01/18 11:56:30;;;;;;;1.63;1.53;;;;;;;4.53;79.03;98361.69;5035084;28;20435;-52
2023/01/18 11:59:00;;;;;;;2.30;1.77;;;;;;;4.56;80.26;98362.41;5036185;28;20455;-52
2023/01/18 12:01:55;;;;;;;5.90;1.97;;;;;;;4.83;79.16;98355.31;5038185;28;20487;-54
2023/01/18 12:04:31;;;;;;;0.40;0.40;;;;;;;4.96;78.79;98355.72;5028199;28;20448;-54
2023/01/18 12:07:02;;;;;;;8.20;1.17;;;;;;;5.02;79.96;98360.72;5035300;28;20483;-53
2023/01/18 12:09:43;;;;;;;1.03;0.93;;;;;;;5.04;79.37;98357.13;5038912;28;20539;-53
2023/01/18 12:12:36;;;;;;;4.90;1.30;;;;;;;4.90;80.31;98364.69;5026643;28;20460;-53
2023/01/18 12:15:12;;;;;;;1.90;1.57;;;;;;;4.80;79.97;98365.94;5039634;28;20948;-53
2023/01/18 12:18:06;;;;;;;1.17;1.17;;;;;;;5.02;79.76;98364.22;5043283;28;20443;-54
2023/01/18 12:20:57;;;;;;;1.10;0.80;;;;;;;5.28;78.39;98367.66;5040105;28;20444;-53
2023/01/18 12:23:49;;;;;;;2.13;1.93;;;;;;;5.22;77.06;98371.41;5033598;28;20439;-54
2023/01/18 12:26:49;;;;;;;1.87;1.47;;;;;;;5.25;75.90;98373.03;5032988;28;20543;-53
2023/01/18 12:29:35;;;;;;;0.70;0.60;;;;;;;5.22;76.29;98376.66;5052351;28;20475;-54